sensor_id;sensor_type;location;lat;lon;timestamp;temperature;humidity
41756;DHT22;27435;48.480;9.258;2022-07-19T00:02:00;22.10;56.50
41756;DHT22;27435;48.480;9.258;2022-07-19T00:04:26;22.20;56.20
41756;DHT22;27435;48.480;9.258;2022-07-19T00:06:52;22.30;55.90
41756;DHT22;27435;48.480;9.258;2022-07-19T00:09:21;22.50;55.70
41756;DHT22;27435;48.480;9.258;2022-07-19T00:11:46;22.50;55.40
41756;DHT22;27435;48.480;9.258;2022-07-19T00:14:12;22.60;55.30
41756;DHT22;27435;48.480;9.258;2022-07-19T00:16:37;22.40;56.30
41756;DHT22;27435;48.480;9.258;2022-07-19T00:19:03;22.20;56.90
41756;DHT22;27435;48.480;9.258;2022-07-19T00:21:29;22.10;57.10
41756;DHT22;27435;48.480;9.258;2022-07-19T00:23:54;21.90;57.60
41756;DHT22;27435;48.480;9.258;2022-07-19T00:26:20;21.80;58.00
41756;DHT22;27435;48.480;9.258;2022-07-19T00:28:46;21.70;58.30
41756;DHT22;27435;48.480;9.258;2022-07-19T00:31:11;21.70;58.20
41756;DHT22;27435;48.480;9.258;2022-07-19T00:33:37;21.70;58.50
41756;DHT22;27435;48.480;9.258;2022-07-19T00:36:03;21.60;58.90
41756;DHT22;27435;48.480;9.258;2022-07-19T00:38:28;21.50;59.10
41756;DHT22;27435;48.480;9.258;2022-07-19T00:40:54;21.50;59.50
41756;DHT22;27435;48.480;9.258;2022-07-19T00:43:20;21.40;60.00
41756;DHT22;27435;48.480;9.258;2022-07-19T00:45:45;21.30;59.80
41756;DHT22;27435;48.480;9.258;2022-07-19T00:48:11;21.40;59.20
41756;DHT22;27435;48.480;9.258;2022-07-19T00:50:37;21.60;58.80
41756;DHT22;27435;48.480;9.258;2022-07-19T00:53:03;21.60;58.70
41756;DHT22;27435;48.480;9.258;2022-07-19T00:55:33;21.70;58.50
41756;DHT22;27435;48.480;9.258;2022-07-19T00:58:00;21.70;58.40
41756;DHT22;27435;48.480;9.258;2022-07-19T01:00:28;21.80;58.10
41756;DHT22;27435;48.480;9.258;2022-07-19T01:02:56;21.90;57.80
41756;DHT22;27435;48.480;9.258;2022-07-19T01:05:22;21.90;57.90
41756;DHT22;27435;48.480;9.258;2022-07-19T01:07:49;22.00;57.60
41756;DHT22;27435;48.480;9.258;2022-07-19T01:10:15;22.10;57.20
41756;DHT22;27435;48.480;9.258;2022-07-19T01:12:42;22.10;57.70
41756;DHT22;27435;48.480;9.258;2022-07-19T01:15:20;21.90;58.00
41756;DHT22;27435;48.480;9.258;2022-07-19T01:17:47;21.90;57.70
41756;DHT22;27435;48.480;9.258;2022-07-19T01:20:13;21.80;58.40
41756;DHT22;27435;48.480;9.258;2022-07-19T01:22:41;21.70;58.80
41756;DHT22;27435;48.480;9.258;2022-07-19T01:25:07;21.50;59.30
41756;DHT22;27435;48.480;9.258;2022-07-19T01:27:45;21.40;59.80
41756;DHT22;27435;48.480;9.258;2022-07-19T01:30:19;21.30;60.30
41756;DHT22;27435;48.480;9.258;2022-07-19T01:32:46;21.10;60.60
41756;DHT22;27435;48.480;9.258;2022-07-19T01:35:13;21.10;61.00
41756;DHT22;27435;48.480;9.258;2022-07-19T01:37:39;21.00;61.20
41756;DHT22;27435;48.480;9.258;2022-07-19T01:40:07;20.90;61.40
41756;DHT22;27435;48.480;9.258;2022-07-19T01:42:33;20.80;61.90
41756;DHT22;27435;48.480;9.258;2022-07-19T01:44:59;20.80;61.80
41756;DHT22;27435;48.480;9.258;2022-07-19T01:47:25;20.70;61.90
41756;DHT22;27435;48.480;9.258;2022-07-19T01:49:51;20.70;61.90
41756;DHT22;27435;48.480;9.258;2022-07-19T01:52:17;20.70;61.90
41756;DHT22;27435;48.480;9.258;2022-07-19T01:54:43;20.70;62.20
41756;DHT22;27435;48.480;9.258;2022-07-19T01:57:08;20.60;62.20
41756;DHT22;27435;48.480;9.258;2022-07-19T01:59:38;20.60;62.50
41756;DHT22;27435;48.480;9.258;2022-07-19T02:02:04;20.50;62.70
41756;DHT22;27435;48.480;9.258;2022-07-19T02:04:30;20.40;63.00
41756;DHT22;27435;48.480;9.258;2022-07-19T02:06:55;20.30;64.00
41756;DHT22;27435;48.480;9.258;2022-07-19T02:09:21;20.00;66.70
41756;DHT22;27435;48.480;9.258;2022-07-19T02:11:47;19.90;68.60
41756;DHT22;27435;48.480;9.258;2022-07-19T02:14:13;19.70;69.20
41756;DHT22;27435;48.480;9.258;2022-07-19T02:16:39;19.40;70.50
41756;DHT22;27435;48.480;9.258;2022-07-19T02:19:06;19.10;72.30
41756;DHT22;27435;48.480;9.258;2022-07-19T02:21:33;18.80;72.90
41756;DHT22;27435;48.480;9.258;2022-07-19T02:23:59;18.50;75.10
41756;DHT22;27435;48.480;9.258;2022-07-19T02:26:24;18.20;76.70
41756;DHT22;27435;48.480;9.258;2022-07-19T02:28:50;18.10;76.70
41756;DHT22;27435;48.480;9.258;2022-07-19T02:31:16;18.10;77.50
41756;DHT22;27435;48.480;9.258;2022-07-19T02:33:42;18.20;77.50
41756;DHT22;27435;48.480;9.258;2022-07-19T02:36:08;18.20;76.50
41756;DHT22;27435;48.480;9.258;2022-07-19T02:38:34;18.10;76.00
41756;DHT22;27435;48.480;9.258;2022-07-19T02:41:00;18.10;76.40
41756;DHT22;27435;48.480;9.258;2022-07-19T02:43:25;18.00;77.30
41756;DHT22;27435;48.480;9.258;2022-07-19T02:45:52;17.80;78.00
41756;DHT22;27435;48.480;9.258;2022-07-19T02:48:17;17.70;78.20
41756;DHT22;27435;48.480;9.258;2022-07-19T02:50:43;17.70;78.10
41756;DHT22;27435;48.480;9.258;2022-07-19T02:53:09;17.70;77.80
41756;DHT22;27435;48.480;9.258;2022-07-19T02:55:34;17.60;77.80
41756;DHT22;27435;48.480;9.258;2022-07-19T02:58:00;17.60;77.30
41756;DHT22;27435;48.480;9.258;2022-07-19T03:00:26;17.60;77.20
41756;DHT22;27435;48.480;9.258;2022-07-19T03:02:52;17.60;76.90
41756;DHT22;27435;48.480;9.258;2022-07-19T03:05:18;17.50;77.10
41756;DHT22;27435;48.480;9.258;2022-07-19T03:07:43;17.50;77.30
41756;DHT22;27435;48.480;9.258;2022-07-19T03:10:09;17.50;77.60
41756;DHT22;27435;48.480;9.258;2022-07-19T03:12:35;17.40;77.10
41756;DHT22;27435;48.480;9.258;2022-07-19T03:15:01;17.60;75.70
41756;DHT22;27435;48.480;9.258;2022-07-19T03:17:27;17.60;75.40
41756;DHT22;27435;48.480;9.258;2022-07-19T03:19:52;17.70;74.20
41756;DHT22;27435;48.480;9.258;2022-07-19T03:22:18;17.90;73.50
41756;DHT22;27435;48.480;9.258;2022-07-19T03:24:43;18.10;72.40
41756;DHT22;27435;48.480;9.258;2022-07-19T03:27:09;18.30;71.10
41756;DHT22;27435;48.480;9.258;2022-07-19T03:29:35;18.40;70.40
41756;DHT22;27435;48.480;9.258;2022-07-19T03:32:00;18.40;70.40
41756;DHT22;27435;48.480;9.258;2022-07-19T03:34:27;18.40;70.40
41756;DHT22;27435;48.480;9.258;2022-07-19T03:36:54;18.50;70.00
41756;DHT22;27435;48.480;9.258;2022-07-19T03:39:20;18.60;69.00
41756;DHT22;27435;48.480;9.258;2022-07-19T03:41:46;18.60;69.00
41756;DHT22;27435;48.480;9.258;2022-07-19T03:44:13;18.60;68.90
41756;DHT22;27435;48.480;9.258;2022-07-19T03:46:38;18.80;68.30
41756;DHT22;27435;48.480;9.258;2022-07-19T03:49:04;18.80;70.90
41756;DHT22;27435;48.480;9.258;2022-07-19T03:51:30;18.70;72.30
41756;DHT22;27435;48.480;9.258;2022-07-19T03:53:55;18.50;74.40
41756;DHT22;27435;48.480;9.258;2022-07-19T03:56:21;18.30;75.90
41756;DHT22;27435;48.480;9.258;2022-07-19T03:58:48;18.10;71.80
41756;DHT22;27435;48.480;9.258;2022-07-19T04:01:14;18.10;71.20
41756;DHT22;27435;48.480;9.258;2022-07-19T04:03:41;18.10;71.10
41756;DHT22;27435;48.480;9.258;2022-07-19T04:06:07;18.20;71.00
41756;DHT22;27435;48.480;9.258;2022-07-19T04:08:33;18.10;71.20
41756;DHT22;27435;48.480;9.258;2022-07-19T04:10:59;18.10;71.00
41756;DHT22;27435;48.480;9.258;2022-07-19T04:13:25;18.10;70.70
41756;DHT22;27435;48.480;9.258;2022-07-19T04:15:50;18.00;73.80
41756;DHT22;27435;48.480;9.258;2022-07-19T04:18:16;17.90;74.00
41756;DHT22;27435;48.480;9.258;2022-07-19T04:20:42;17.80;73.70
41756;DHT22;27435;48.480;9.258;2022-07-19T04:23:08;17.70;74.20
41756;DHT22;27435;48.480;9.258;2022-07-19T04:25:34;17.70;75.20
41756;DHT22;27435;48.480;9.258;2022-07-19T04:27:59;17.70;74.80
41756;DHT22;27435;48.480;9.258;2022-07-19T04:30:25;17.80;73.70
41756;DHT22;27435;48.480;9.258;2022-07-19T04:32:51;17.80;73.30
41756;DHT22;27435;48.480;9.258;2022-07-19T04:35:17;17.90;72.70
41756;DHT22;27435;48.480;9.258;2022-07-19T04:37:42;17.90;73.60
41756;DHT22;27435;48.480;9.258;2022-07-19T04:40:09;17.90;74.80
41756;DHT22;27435;48.480;9.258;2022-07-19T04:42:35;17.80;75.40
41756;DHT22;27435;48.480;9.258;2022-07-19T04:45:01;17.80;75.40
41756;DHT22;27435;48.480;9.258;2022-07-19T04:47:27;17.80;75.60
41756;DHT22;27435;48.480;9.258;2022-07-19T04:49:52;17.80;74.80
41756;DHT22;27435;48.480;9.258;2022-07-19T04:52:18;17.80;75.50
41756;DHT22;27435;48.480;9.258;2022-07-19T04:54:43;17.90;73.40
41756;DHT22;27435;48.480;9.258;2022-07-19T04:57:09;18.10;74.50
41756;DHT22;27435;48.480;9.258;2022-07-19T04:59:35;18.10;73.80
41756;DHT22;27435;48.480;9.258;2022-07-19T05:02:00;18.10;75.40
41756;DHT22;27435;48.480;9.258;2022-07-19T05:04:26;18.00;77.30
41756;DHT22;27435;48.480;9.258;2022-07-19T05:06:52;17.90;77.70
41756;DHT22;27435;48.480;9.258;2022-07-19T05:09:26;17.90;79.00
41756;DHT22;27435;48.480;9.258;2022-07-19T05:11:53;17.90;79.60
41756;DHT22;27435;48.480;9.258;2022-07-19T05:14:18;17.90;79.40
41756;DHT22;27435;48.480;9.258;2022-07-19T05:16:45;17.90;79.00
41756;DHT22;27435;48.480;9.258;2022-07-19T05:19:11;17.90;79.00
41756;DHT22;27435;48.480;9.258;2022-07-19T05:21:37;17.90;79.60
41756;DHT22;27435;48.480;9.258;2022-07-19T05:24:03;18.00;79.80
41756;DHT22;27435;48.480;9.258;2022-07-19T05:26:28;18.10;79.10
41756;DHT22;27435;48.480;9.258;2022-07-19T05:28:54;18.20;78.80
41756;DHT22;27435;48.480;9.258;2022-07-19T05:31:20;18.20;78.80
41756;DHT22;27435;48.480;9.258;2022-07-19T05:33:45;18.30;78.50
41756;DHT22;27435;48.480;9.258;2022-07-19T05:47:32;18.40;78.10
41756;DHT22;27435;48.480;9.258;2022-07-19T05:49:58;19.00;77.10
41756;DHT22;27435;48.480;9.258;2022-07-19T05:52:24;19.30;76.20
41756;DHT22;27435;48.480;9.258;2022-07-19T05:54:50;19.70;75.20
41756;DHT22;27435;48.480;9.258;2022-07-19T05:57:16;20.30;74.30
41756;DHT22;27435;48.480;9.258;2022-07-19T05:59:41;20.80;71.90
41756;DHT22;27435;48.480;9.258;2022-07-19T06:02:07;21.70;69.20
41756;DHT22;27435;48.480;9.258;2022-07-19T06:04:33;22.40;66.90
41756;DHT22;27435;48.480;9.258;2022-07-19T06:06:58;22.80;65.50
41756;DHT22;27435;48.480;9.258;2022-07-19T06:09:24;23.80;63.20
41756;DHT22;27435;48.480;9.258;2022-07-19T06:11:50;24.40;61.40
41756;DHT22;27435;48.480;9.258;2022-07-19T06:14:17;24.90;60.30
41756;DHT22;27435;48.480;9.258;2022-07-19T06:16:43;24.40;60.10
41756;DHT22;27435;48.480;9.258;2022-07-19T06:19:09;24.00;62.10
41756;DHT22;27435;48.480;9.258;2022-07-19T06:21:36;24.60;61.00
41756;DHT22;27435;48.480;9.258;2022-07-19T06:24:02;24.40;60.90
41756;DHT22;27435;48.480;9.258;2022-07-19T06:26:28;24.20;61.60
41756;DHT22;27435;48.480;9.258;2022-07-19T06:28:54;24.50;60.90
41756;DHT22;27435;48.480;9.258;2022-07-19T06:31:20;24.50;60.60
41756;DHT22;27435;48.480;9.258;2022-07-19T06:33:47;24.60;60.80
41756;DHT22;27435;48.480;9.258;2022-07-19T06:36:13;25.10;59.30
41756;DHT22;27435;48.480;9.258;2022-07-19T06:38:39;25.10;58.40
41756;DHT22;27435;48.480;9.258;2022-07-19T06:41:05;25.00;59.00
41756;DHT22;27435;48.480;9.258;2022-07-19T06:43:31;25.60;58.40
41756;DHT22;27435;48.480;9.258;2022-07-19T06:45:56;25.70;58.20
41756;DHT22;27435;48.480;9.258;2022-07-19T06:48:22;25.50;58.40
41756;DHT22;27435;48.480;9.258;2022-07-19T06:50:48;25.30;58.70
41756;DHT22;27435;48.480;9.258;2022-07-19T06:53:14;25.50;58.80
41756;DHT22;27435;48.480;9.258;2022-07-19T06:55:39;26.00;56.60
41756;DHT22;27435;48.480;9.258;2022-07-19T06:58:05;26.80;55.10
41756;DHT22;27435;48.480;9.258;2022-07-19T07:00:31;27.00;54.80
41756;DHT22;27435;48.480;9.258;2022-07-19T07:02:57;27.40;54.30
41756;DHT22;27435;48.480;9.258;2022-07-19T07:05:23;27.80;53.90
41756;DHT22;27435;48.480;9.258;2022-07-19T07:07:48;27.90;53.60
41756;DHT22;27435;48.480;9.258;2022-07-19T07:10:16;26.90;55.40
41756;DHT22;27435;48.480;9.258;2022-07-19T07:12:42;27.30;54.80
41756;DHT22;27435;48.480;9.258;2022-07-19T07:15:08;27.80;54.20
41756;DHT22;27435;48.480;9.258;2022-07-19T07:17:37;27.50;54.20
41756;DHT22;27435;48.480;9.258;2022-07-19T07:20:04;27.50;54.40
41756;DHT22;27435;48.480;9.258;2022-07-19T07:22:31;26.90;55.50
41756;DHT22;27435;48.480;9.258;2022-07-19T07:24:57;27.20;54.00
41756;DHT22;27435;48.480;9.258;2022-07-19T07:27:22;26.50;55.30
41756;DHT22;27435;48.480;9.258;2022-07-19T07:29:48;26.70;55.50
41756;DHT22;27435;48.480;9.258;2022-07-19T07:32:14;26.10;52.00
41756;DHT22;27435;48.480;9.258;2022-07-19T07:34:39;26.20;54.40
41756;DHT22;27435;48.480;9.258;2022-07-19T07:37:05;26.40;54.90
41756;DHT22;27435;48.480;9.258;2022-07-19T07:39:31;26.40;54.60
41756;DHT22;27435;48.480;9.258;2022-07-19T07:41:56;26.50;54.40
41756;DHT22;27435;48.480;9.258;2022-07-19T07:44:22;26.60;54.60
41756;DHT22;27435;48.480;9.258;2022-07-19T07:46:47;27.10;52.80
41756;DHT22;27435;48.480;9.258;2022-07-19T07:49:13;27.20;46.40
41756;DHT22;27435;48.480;9.258;2022-07-19T07:51:39;27.60;44.20
41756;DHT22;27435;48.480;9.258;2022-07-19T07:54:04;27.80;43.10
41756;DHT22;27435;48.480;9.258;2022-07-19T07:56:30;28.10;43.20
41756;DHT22;27435;48.480;9.258;2022-07-19T07:58:55;28.30;42.70
41756;DHT22;27435;48.480;9.258;2022-07-19T08:01:21;28.40;40.80
41756;DHT22;27435;48.480;9.258;2022-07-19T08:03:47;28.50;41.40
41756;DHT22;27435;48.480;9.258;2022-07-19T08:06:12;28.60;41.20
41756;DHT22;27435;48.480;9.258;2022-07-19T08:08:41;28.70;41.40
41756;DHT22;27435;48.480;9.258;2022-07-19T08:11:06;28.80;41.40
41756;DHT22;27435;48.480;9.258;2022-07-19T08:13:32;29.00;40.20
41756;DHT22;27435;48.480;9.258;2022-07-19T08:15:58;28.90;39.90
41756;DHT22;27435;48.480;9.258;2022-07-19T08:18:24;29.00;40.10
41756;DHT22;27435;48.480;9.258;2022-07-19T08:20:49;29.10;39.90
41756;DHT22;27435;48.480;9.258;2022-07-19T08:23:15;29.10;39.90
41756;DHT22;27435;48.480;9.258;2022-07-19T08:25:40;29.20;39.70
41756;DHT22;27435;48.480;9.258;2022-07-19T08:28:06;29.20;39.90
41756;DHT22;27435;48.480;9.258;2022-07-19T08:30:32;29.30;39.70
41756;DHT22;27435;48.480;9.258;2022-07-19T08:32:58;29.40;39.10
41756;DHT22;27435;48.480;9.258;2022-07-19T08:35:24;29.30;39.20
41756;DHT22;27435;48.480;9.258;2022-07-19T08:37:49;29.40;39.00
41756;DHT22;27435;48.480;9.258;2022-07-19T08:40:15;29.50;38.90
41756;DHT22;27435;48.480;9.258;2022-07-19T08:42:41;29.60;39.00
41756;DHT22;27435;48.480;9.258;2022-07-19T08:45:10;29.80;38.90
41756;DHT22;27435;48.480;9.258;2022-07-19T08:47:36;29.70;38.80
41756;DHT22;27435;48.480;9.258;2022-07-19T08:50:06;29.60;38.70
41756;DHT22;27435;48.480;9.258;2022-07-19T08:52:33;29.70;39.20
41756;DHT22;27435;48.480;9.258;2022-07-19T08:54:59;29.80;38.50
41756;DHT22;27435;48.480;9.258;2022-07-19T08:57:25;29.80;38.90
41756;DHT22;27435;48.480;9.258;2022-07-19T09:00:11;29.90;39.00
41756;DHT22;27435;48.480;9.258;2022-07-19T09:02:37;30.00;38.70
41756;DHT22;27435;48.480;9.258;2022-07-19T09:05:08;30.00;38.60
41756;DHT22;27435;48.480;9.258;2022-07-19T09:07:34;29.80;38.10
41756;DHT22;27435;48.480;9.258;2022-07-19T09:10:18;29.70;38.50
41756;DHT22;27435;48.480;9.258;2022-07-19T09:13:10;29.90;39.30
41756;DHT22;27435;48.480;9.258;2022-07-19T09:15:42;30.10;38.20
41756;DHT22;27435;48.480;9.258;2022-07-19T09:18:09;30.20;38.60
41756;DHT22;27435;48.480;9.258;2022-07-19T09:20:35;30.30;39.00
41756;DHT22;27435;48.480;9.258;2022-07-19T09:23:01;30.40;38.40
41756;DHT22;27435;48.480;9.258;2022-07-19T09:25:42;30.40;38.80
41756;DHT22;27435;48.480;9.258;2022-07-19T09:28:08;30.50;38.80
41756;DHT22;27435;48.480;9.258;2022-07-19T09:30:46;30.70;38.70
41756;DHT22;27435;48.480;9.258;2022-07-19T09:33:18;30.70;38.30
41756;DHT22;27435;48.480;9.258;2022-07-19T09:35:46;30.70;38.10
41756;DHT22;27435;48.480;9.258;2022-07-19T09:40:46;30.90;37.60
41756;DHT22;27435;48.480;9.258;2022-07-19T09:43:13;31.10;37.70
41756;DHT22;27435;48.480;9.258;2022-07-19T09:45:38;31.10;36.40
41756;DHT22;27435;48.480;9.258;2022-07-19T09:48:04;31.10;37.00
41756;DHT22;27435;48.480;9.258;2022-07-19T09:50:30;31.20;37.40
41756;DHT22;27435;48.480;9.258;2022-07-19T09:53:02;31.20;37.20
41756;DHT22;27435;48.480;9.258;2022-07-19T09:55:28;31.20;36.70
41756;DHT22;27435;48.480;9.258;2022-07-19T09:57:56;31.20;37.40
41756;DHT22;27435;48.480;9.258;2022-07-19T10:00:23;31.30;35.70
41756;DHT22;27435;48.480;9.258;2022-07-19T10:02:57;31.20;36.40
41756;DHT22;27435;48.480;9.258;2022-07-19T10:05:24;31.30;36.40
41756;DHT22;27435;48.480;9.258;2022-07-19T10:07:50;31.40;35.80
41756;DHT22;27435;48.480;9.258;2022-07-19T10:10:18;31.40;37.30
41756;DHT22;27435;48.480;9.258;2022-07-19T10:12:46;31.50;35.80
41756;DHT22;27435;48.480;9.258;2022-07-19T10:15:14;31.40;35.70
41756;DHT22;27435;48.480;9.258;2022-07-19T10:18:06;31.50;37.00
41756;DHT22;27435;48.480;9.258;2022-07-19T10:20:35;31.70;35.30
41756;DHT22;27435;48.480;9.258;2022-07-19T10:23:04;31.80;35.50
41756;DHT22;27435;48.480;9.258;2022-07-19T10:25:40;31.90;35.30
41756;DHT22;27435;48.480;9.258;2022-07-19T10:28:31;31.90;34.00
41756;DHT22;27435;48.480;9.258;2022-07-19T10:30:57;31.70;33.90
41756;DHT22;27435;48.480;9.258;2022-07-19T10:33:36;31.70;34.30
41756;DHT22;27435;48.480;9.258;2022-07-19T10:36:31;31.90;34.20
41756;DHT22;27435;48.480;9.258;2022-07-19T10:42:13;32.10;34.00
41756;DHT22;27435;48.480;9.258;2022-07-19T10:50:06;32.20;34.60
41756;DHT22;27435;48.480;9.258;2022-07-19T10:52:36;32.20;33.90
41756;DHT22;27435;48.480;9.258;2022-07-19T10:57:49;32.20;34.40
41756;DHT22;27435;48.480;9.258;2022-07-19T11:00:29;32.30;34.20
41756;DHT22;27435;48.480;9.258;2022-07-19T11:05:50;32.70;34.20
41756;DHT22;27435;48.480;9.258;2022-07-19T11:08:17;32.60;34.30
41756;DHT22;27435;48.480;9.258;2022-07-19T11:10:42;32.60;33.80
41756;DHT22;27435;48.480;9.258;2022-07-19T11:13:08;32.60;34.10
41756;DHT22;27435;48.480;9.258;2022-07-19T11:15:34;32.80;33.70
41756;DHT22;27435;48.480;9.258;2022-07-19T11:18:05;32.70;33.10
41756;DHT22;27435;48.480;9.258;2022-07-19T11:20:33;32.60;33.20
41756;DHT22;27435;48.480;9.258;2022-07-19T11:23:00;32.90;32.90
41756;DHT22;27435;48.480;9.258;2022-07-19T11:25:37;32.90;32.60
41756;DHT22;27435;48.480;9.258;2022-07-19T11:28:04;33.20;33.20
41756;DHT22;27435;48.480;9.258;2022-07-19T11:30:33;33.40;33.20
41756;DHT22;27435;48.480;9.258;2022-07-19T11:33:04;33.40;33.10
41756;DHT22;27435;48.480;9.258;2022-07-19T11:35:30;33.50;33.50
41756;DHT22;27435;48.480;9.258;2022-07-19T11:37:58;33.50;32.60
41756;DHT22;27435;48.480;9.258;2022-07-19T11:40:24;33.30;33.10
41756;DHT22;27435;48.480;9.258;2022-07-19T11:42:57;33.30;33.20
41756;DHT22;27435;48.480;9.258;2022-07-19T11:45:25;33.10;32.80
41756;DHT22;27435;48.480;9.258;2022-07-19T11:47:56;33.30;32.80
41756;DHT22;27435;48.480;9.258;2022-07-19T11:50:24;33.50;32.50
41756;DHT22;27435;48.480;9.258;2022-07-19T11:52:55;33.80;32.10
41756;DHT22;27435;48.480;9.258;2022-07-19T11:55:24;33.60;31.70
41756;DHT22;27435;48.480;9.258;2022-07-19T11:57:50;33.90;31.90
41756;DHT22;27435;48.480;9.258;2022-07-19T12:00:18;34.00;31.60
41756;DHT22;27435;48.480;9.258;2022-07-19T12:03:01;33.90;31.10
41756;DHT22;27435;48.480;9.258;2022-07-19T12:05:37;33.70;31.40
41756;DHT22;27435;48.480;9.258;2022-07-19T12:08:10;33.90;32.20
41756;DHT22;27435;48.480;9.258;2022-07-19T12:10:44;34.20;31.70
41756;DHT22;27435;48.480;9.258;2022-07-19T12:13:15;34.50;31.30
41756;DHT22;27435;48.480;9.258;2022-07-19T12:15:54;34.80;29.80
41756;DHT22;27435;48.480;9.258;2022-07-19T12:18:22;34.90;30.30
41756;DHT22;27435;48.480;9.258;2022-07-19T12:21:21;34.60;30.20
41756;DHT22;27435;48.480;9.258;2022-07-19T12:27:04;34.60;30.90
41756;DHT22;27435;48.480;9.258;2022-07-19T12:29:45;34.80;30.00
41756;DHT22;27435;48.480;9.258;2022-07-19T12:32:27;34.60;30.40
41756;DHT22;27435;48.480;9.258;2022-07-19T12:37:38;34.90;30.00
41756;DHT22;27435;48.480;9.258;2022-07-19T12:40:40;35.20;29.30
41756;DHT22;27435;48.480;9.258;2022-07-19T12:42:59;35.30;29.50
41756;DHT22;27435;48.480;9.258;2022-07-19T12:45:28;35.50;29.30
41756;DHT22;27435;48.480;9.258;2022-07-19T12:47:54;35.50;30.00
41756;DHT22;27435;48.480;9.258;2022-07-19T12:50:24;35.90;29.40
41756;DHT22;27435;48.480;9.258;2022-07-19T12:52:51;36.20;28.40
41756;DHT22;27435;48.480;9.258;2022-07-19T12:55:18;36.30;28.50
41756;DHT22;27435;48.480;9.258;2022-07-19T12:57:44;36.50;28.30
41756;DHT22;27435;48.480;9.258;2022-07-19T13:00:10;36.70;28.20
41756;DHT22;27435;48.480;9.258;2022-07-19T13:02:36;36.60;28.20
41756;DHT22;27435;48.480;9.258;2022-07-19T13:05:02;36.30;28.60
41756;DHT22;27435;48.480;9.258;2022-07-19T13:07:27;36.60;29.00
41756;DHT22;27435;48.480;9.258;2022-07-19T13:09:53;36.90;28.90
41756;DHT22;27435;48.480;9.258;2022-07-19T13:12:20;37.20;27.40
41756;DHT22;27435;48.480;9.258;2022-07-19T13:14:46;37.50;27.50
41756;DHT22;27435;48.480;9.258;2022-07-19T13:17:12;37.50;27.70
41756;DHT22;27435;48.480;9.258;2022-07-19T13:19:38;37.20;27.50
41756;DHT22;27435;48.480;9.258;2022-07-19T13:22:05;37.30;27.60
41756;DHT22;27435;48.480;9.258;2022-07-19T13:24:31;37.50;27.50
41756;DHT22;27435;48.480;9.258;2022-07-19T13:26:57;37.50;26.70
41756;DHT22;27435;48.480;9.258;2022-07-19T13:29:23;37.80;27.40
41756;DHT22;27435;48.480;9.258;2022-07-19T13:31:49;38.00;26.10
41756;DHT22;27435;48.480;9.258;2022-07-19T13:34:15;38.30;25.90
41756;DHT22;27435;48.480;9.258;2022-07-19T13:36:41;38.50;25.10
41756;DHT22;27435;48.480;9.258;2022-07-19T13:39:08;37.90;26.10
41756;DHT22;27435;48.480;9.258;2022-07-19T13:41:36;37.90;26.80
41756;DHT22;27435;48.480;9.258;2022-07-19T13:44:04;38.00;26.50
41756;DHT22;27435;48.480;9.258;2022-07-19T13:46:31;38.40;26.20
41756;DHT22;27435;48.480;9.258;2022-07-19T13:48:56;38.90;25.40
41756;DHT22;27435;48.480;9.258;2022-07-19T13:51:22;39.10;25.80
41756;DHT22;27435;48.480;9.258;2022-07-19T13:53:48;39.70;24.90
41756;DHT22;27435;48.480;9.258;2022-07-19T13:56:14;39.90;24.40
41756;DHT22;27435;48.480;9.258;2022-07-19T13:58:40;39.70;24.50
41756;DHT22;27435;48.480;9.258;2022-07-19T14:01:06;39.60;24.20
41756;DHT22;27435;48.480;9.258;2022-07-19T14:03:31;39.10;24.30
41756;DHT22;27435;48.480;9.258;2022-07-19T14:05:57;39.40;23.30
41756;DHT22;27435;48.480;9.258;2022-07-19T14:08:23;39.90;24.00
41756;DHT22;27435;48.480;9.258;2022-07-19T14:10:49;40.30;23.80
41756;DHT22;27435;48.480;9.258;2022-07-19T14:13:15;40.40;23.30
41756;DHT22;27435;48.480;9.258;2022-07-19T14:15:41;40.10;24.70
41756;DHT22;27435;48.480;9.258;2022-07-19T14:18:09;40.20;24.80
41756;DHT22;27435;48.480;9.258;2022-07-19T14:20:34;40.60;23.70
41756;DHT22;27435;48.480;9.258;2022-07-19T14:23:00;40.30;22.90
41756;DHT22;27435;48.480;9.258;2022-07-19T14:25:26;40.00;23.50
41756;DHT22;27435;48.480;9.258;2022-07-19T14:27:51;39.30;23.70
41756;DHT22;27435;48.480;9.258;2022-07-19T14:30:17;39.00;24.50
41756;DHT22;27435;48.480;9.258;2022-07-19T14:32:43;39.80;23.90
41756;DHT22;27435;48.480;9.258;2022-07-19T14:35:08;40.60;23.20
41756;DHT22;27435;48.480;9.258;2022-07-19T14:37:35;41.10;23.50
41756;DHT22;27435;48.480;9.258;2022-07-19T14:40:00;40.70;22.90
41756;DHT22;27435;48.480;9.258;2022-07-19T14:42:26;40.00;23.80
41756;DHT22;27435;48.480;9.258;2022-07-19T14:44:56;40.80;24.00
41756;DHT22;27435;48.480;9.258;2022-07-19T14:47:21;40.70;23.50
41756;DHT22;27435;48.480;9.258;2022-07-19T14:49:48;41.10;23.40
41756;DHT22;27435;48.480;9.258;2022-07-19T14:52:13;41.00;23.70
41756;DHT22;27435;48.480;9.258;2022-07-19T14:54:39;40.80;23.50
41756;DHT22;27435;48.480;9.258;2022-07-19T14:57:04;41.40;23.50
41756;DHT22;27435;48.480;9.258;2022-07-19T14:59:30;42.00;22.90
41756;DHT22;27435;48.480;9.258;2022-07-19T15:01:56;42.20;21.70
41756;DHT22;27435;48.480;9.258;2022-07-19T15:04:21;42.30;22.20
41756;DHT22;27435;48.480;9.258;2022-07-19T15:06:47;42.60;22.10
41756;DHT22;27435;48.480;9.258;2022-07-19T15:09:13;43.10;22.30
41756;DHT22;27435;48.480;9.258;2022-07-19T15:11:39;43.40;22.00
41756;DHT22;27435;48.480;9.258;2022-07-19T15:14:05;43.20;21.40
41756;DHT22;27435;48.480;9.258;2022-07-19T15:16:31;43.30;20.80
41756;DHT22;27435;48.480;9.258;2022-07-19T15:18:57;43.20;21.40
41756;DHT22;27435;48.480;9.258;2022-07-19T15:21:22;43.20;21.50
41756;DHT22;27435;48.480;9.258;2022-07-19T15:23:48;42.80;21.80
41756;DHT22;27435;48.480;9.258;2022-07-19T15:26:14;42.90;21.70
41756;DHT22;27435;48.480;9.258;2022-07-19T15:28:39;42.60;22.10
41756;DHT22;27435;48.480;9.258;2022-07-19T15:31:06;42.10;22.30
41756;DHT22;27435;48.480;9.258;2022-07-19T15:33:32;41.80;23.20
41756;DHT22;27435;48.480;9.258;2022-07-19T15:35:58;41.50;22.90
41756;DHT22;27435;48.480;9.258;2022-07-19T15:38:24;42.30;22.00
41756;DHT22;27435;48.480;9.258;2022-07-19T15:40:50;42.90;21.80
41756;DHT22;27435;48.480;9.258;2022-07-19T15:43:17;43.20;21.90
41756;DHT22;27435;48.480;9.258;2022-07-19T15:45:43;43.30;21.50
41756;DHT22;27435;48.480;9.258;2022-07-19T15:48:09;43.60;21.40
41756;DHT22;27435;48.480;9.258;2022-07-19T15:50:35;43.70;21.40
41756;DHT22;27435;48.480;9.258;2022-07-19T15:53:06;43.80;21.60
41756;DHT22;27435;48.480;9.258;2022-07-19T15:55:32;42.50;22.30
41756;DHT22;27435;48.480;9.258;2022-07-19T15:57:58;42.60;21.90
41756;DHT22;27435;48.480;9.258;2022-07-19T16:00:24;42.20;21.90
41756;DHT22;27435;48.480;9.258;2022-07-19T16:02:50;42.70;21.80
41756;DHT22;27435;48.480;9.258;2022-07-19T16:05:16;43.10;21.60